Flight Track Log - Related Links

Times and Time Zones

All times are in EDT time to prevent confusion due to time zone crossing. See the KAP927 flight status page for this flight to view local times or setup timezone preferences in your user account.

Time Position Orientation Groundspeed Altitude Reporting Facility
EDT Latitude Longitude Course Direction KTS MPH feet Rate Location/Type
Sat 08:36:42 AM 42.7433 -73.7150 101° East 129 148 1,600  Level Boston Center
Sat 08:37:43 AM 42.7356 -73.6611 101° East 138 159 2,100 425 Climbing Boston Center
Sat 08:38:49 AM 42.7278 -73.6075 101° East 137 158 2,500 472 Climbing Boston Center
Sat 08:39:50 AM 42.7222 -73.5564 98° East 136 157 3,100 517 Climbing Boston Center
Sat 08:40:45 AM 42.7164 -73.5083 99° East 138 159 3,500 470 Climbing Boston Center
Sat 08:41:45 AM 42.7064 -73.4572 105° East 144 166 4,000 496 Climbing Boston Center
Sat 08:42:46 AM 42.7028 -73.4036 95° East 143 165 4,500 492 Climbing Boston Center
Sat 08:43:47 AM 42.6947 -73.3497 101° East 142 163 5,000 458 Climbing Boston Center
Sat 08:44:44 AM 42.6889 -73.2989 99° East 139 160 5,400 410 Climbing Boston Center
Sat 08:45:44 AM 42.6831 -73.2506 99° East 148 170 5,800 400 Climbing Boston Center
Sat 08:46:44 AM 42.6750 -73.1914 100° East 148 170 6,200 400 Climbing Boston Center
Sat 08:47:44 AM 42.6672 -73.1403 102° East 148 170 6,600 400 Climbing Boston Center
Sat 08:48:44 AM 42.6592 -73.0753 100° East 148 170 7,000 350 Climbing Boston Center
Sat 08:49:44 AM 42.6511 -73.0217 102° East 153 176 7,300 400 Climbing Boston Center
Sat 08:50:44 AM 42.6472 -72.9650 95° East 153 176 7,800 450 Climbing Boston Center
Sat 08:51:44 AM 42.6392 -72.9031 100° East 153 176 8,200 450 Climbing Boston Center
Sat 08:52:44 AM 42.6289 -72.8464 104° East 153 176 8,700 450 Climbing Boston Center
Sat 08:53:44 AM 42.6208 -72.7872 100° East 153 176 9,100 400 Climbing Boston Center
Sat 08:54:44 AM 42.6147 -72.7278 98° East 153 176 9,500 250 Climbing Boston Center
Sat 08:55:44 AM 42.6022 -72.6631 105° East 169 194 9,600 50 Climbing Boston Center
Sat 08:56:44 AM 42.5942 -72.5925 99° East 184 212 9,600  Level Boston Center
Sat 08:57:44 AM 42.5858 -72.5247 99° East 184 212 9,600  Level Boston Center
Sat 08:58:44 AM 42.5775 -72.4569 99° East 184 212 9,600  Level Boston Center
Sat 08:59:44 AM 42.5650 -72.3894 104° East 184 212 9,600  Level Boston Center
Sat 09:00:44 AM 42.5567 -72.3217 99° East 184 212 9,600  Level Boston Center
Sat 09:01:44 AM 42.5461 -72.2514 102° East 184 212 9,600  Level Boston Center
Sat 09:02:44 AM 42.5356 -72.1836 102° East 179 206 9,600  Level Boston Center
Sat 09:03:44 AM 42.5250 -72.1161 102° East 179 206 9,600 -200 Level Boston Center
Sat 09:04:44 AM 42.5164 -72.0458 99° East 179 206 9,200 -450 Descending Boston Center
Sat 09:05:44 AM 42.5058 -71.9783 102° East 192 221 8,700 -550 Descending Boston Center
Sat 09:06:44 AM 42.4950 -71.8911 100° East 203 234 8,100 -550 Descending Boston Center
Sat 09:07:44 AM 42.4842 -71.8236 102° East 203 234 7,600 -550 Descending Boston Center
Sat 09:08:44 AM 42.4900 -71.7389 85° East 198 228 7,000 -550 Descending Boston Center
Sat 09:09:44 AM 42.4978 -71.6686 81° East 198 228 6,500 -600 Descending Boston Center
Sat 09:10:44 AM 42.5078 -71.5867 81° East 198 228 5,800 -692 Descending Boston Center
Sat 09:11:02 AM 42.5167 -71.5667 59° Northeast 205 236 5,600 -231 Descending KA90
Sat 09:12:02 AM 42.5167 -71.4833 90° East 188 216 5,500 -50 Descending KA90
Sat 09:13:03 AM 42.5333 -71.4167 71° East 179 206 5,500 -250 Level KA90
Sat 09:14:02 AM 42.5333 -71.3500 90° East 174 200 5,000 -500 Descending KA90
Sat 09:15:03 AM 42.5500 -71.2833 71° East 196 226 4,500 -248 Descending KA90
Sat 09:16:03 AM 42.5500 -71.2167 90° East 190 219 4,500  Level KA90
Sat 09:17:03 AM 42.5500 -71.1500 90° East 181 208 4,500 -151 Level KA90
Sat 09:18:02 AM 42.5333 -71.0833 109° East 171 197 4,200 -504 Descending KA90
Sat 09:19:02 AM 42.5167 -71.0167 109° East 196 226 3,500 -800 Descending KA90
Sat 09:20:02 AM 42.4833 -70.9667 132° Southeast 201 231 2,600 -893 Descending KA90
Sat 09:21:03 AM 42.4333 -70.9667 180° South 177 204 1,700 -850 Descending KA90
Sat 09:22:02 AM 42.4000 -70.9833 200° South 122 140 900 -814 Descending KA90
Sat 09:24:00 AM 42.3630 -71.0064 270° West  Level Estimated
Sat 09:31:00 AM 42.3630 -71.0064 270° West  Level Estimated
Sat 09:32:00 AM 42.3630 -71.0064 270° West  Level Estimated

Login

Don't have an account? Register now (free) for customized features, flight alerts, and more!